createdAt,value
2018-07-10T00:02:16.011Z,2.67
2018-07-10T00:06:59.537Z,4.08
2018-07-10T00:09:40.129Z,2.67
2018-07-10T00:12:08.690Z,2.47
2018-07-10T00:14:37.670Z,2.20
2018-07-10T00:17:06.177Z,2.67
2018-07-10T00:19:34.677Z,2.60
2018-07-10T00:22:03.182Z,2.72
2018-07-10T00:24:32.010Z,2.33
2018-07-10T00:27:00.473Z,2.42
2018-07-10T00:29:28.970Z,2.27
2018-07-10T00:31:57.445Z,2.58
2018-07-10T00:34:25.923Z,2.25
2018-07-10T00:36:54.672Z,2.30
2018-07-10T00:39:23.153Z,2.60
2018-07-10T00:41:51.642Z,2.27
2018-07-10T00:44:20.452Z,2.20
2018-07-10T00:46:48.971Z,2.37
2018-07-10T00:49:17.806Z,2.22
2018-07-10T00:51:46.311Z,2.47
2018-07-10T00:54:14.825Z,1.90
2018-07-10T00:56:43.334Z,2.00
2018-07-10T00:59:11.876Z,2.47
2018-07-10T01:01:40.377Z,1.70
2018-07-10T01:04:08.875Z,1.80
2018-07-10T01:06:37.385Z,2.02
2018-07-10T01:09:05.899Z,2.00
2018-07-10T01:11:34.406Z,1.50
2018-07-10T01:14:02.902Z,1.80
2018-07-10T01:16:35.317Z,2.12
2018-07-10T01:19:08.305Z,2.05
2018-07-10T01:21:36.815Z,2.67
2018-07-10T01:24:06.321Z,2.37
2018-07-10T01:26:36.572Z,2.02
2018-07-10T01:29:11.248Z,2.40
2018-07-10T01:31:44.337Z,1.70
2018-07-10T01:34:14.406Z,2.05
2018-07-10T01:36:42.905Z,2.08
2018-07-10T01:39:11.421Z,2.30
2018-07-10T01:41:39.945Z,1.90
2018-07-10T01:44:08.429Z,1.87
2018-07-10T01:46:36.938Z,1.90
2018-07-10T01:49:05.809Z,2.05
2018-07-10T01:51:34.984Z,1.98
2018-07-10T01:54:03.541Z,1.92
2018-07-10T01:56:32.275Z,1.75
2018-07-10T01:59:01.197Z,1.57
2018-07-10T02:01:30.668Z,2.70
2018-07-10T02:04:00.470Z,2.02
2018-07-10T02:06:29.239Z,1.75
2018-07-10T02:08:58.203Z,2.30
2018-07-10T02:11:27.251Z,2.08
2018-07-10T02:13:55.765Z,1.52
2018-07-10T02:16:24.417Z,2.17
2018-07-10T02:18:53.562Z,1.80
2018-07-10T02:21:22.070Z,1.95
2018-07-10T02:23:50.577Z,2.00
2018-07-10T02:26:22.435Z,1.70
2018-07-10T02:28:51.949Z,2.30
2018-07-10T02:31:20.509Z,1.75
2018-07-10T02:33:49.401Z,2.20
2018-07-10T02:36:18.142Z,2.65
2018-07-10T02:38:49.101Z,2.20
2018-07-10T02:41:19.967Z,2.27
2018-07-10T02:43:52.654Z,2.10
2018-07-10T02:46:21.466Z,2.10
2018-07-10T02:48:50.218Z,2.37
2018-07-10T02:51:18.717Z,2.10
2018-07-10T02:53:47.333Z,2.05
2018-07-10T02:56:17.533Z,2.20
2018-07-10T02:58:48.185Z,2.05
2018-07-10T03:01:16.705Z,2.30
2018-07-10T03:03:45.433Z,2.02
2018-07-10T03:06:14.074Z,2.10
2018-07-10T03:08:42.909Z,2.02
2018-07-10T03:11:12.814Z,2.20
2018-07-10T03:13:41.658Z,1.90
2018-07-10T03:16:10.157Z,1.72
2018-07-10T03:18:38.757Z,1.70
2018-07-10T03:21:07.582Z,2.20
2018-07-10T03:23:36.206Z,1.70
2018-07-10T03:26:04.751Z,1.42
2018-07-10T03:28:33.252Z,1.82
2018-07-10T03:31:01.881Z,2.25
2018-07-10T03:33:30.391Z,1.85
2018-07-10T03:35:59.230Z,1.57
2018-07-10T03:38:27.924Z,2.08
2018-07-10T03:40:56.414Z,1.77
2018-07-10T03:43:25.037Z,1.50
2018-07-10T03:45:53.542Z,1.65
2018-07-10T03:48:22.033Z,1.95
2018-07-10T03:50:51.188Z,2.15
2018-07-10T03:53:21.176Z,1.72
2018-07-10T03:55:49.684Z,2.27
2018-07-10T03:58:19.264Z,1.85
2018-07-10T04:00:48.672Z,2.30
2018-07-10T04:03:18.625Z,2.40
2018-07-10T04:05:47.337Z,2.52
2018-07-10T04:08:16.086Z,1.98
2018-07-10T04:10:45.594Z,2.10
2018-07-10T04:13:18.298Z,2.20
2018-07-10T04:15:47.702Z,2.30
2018-07-10T04:18:18.334Z,2.35
2018-07-10T04:21:20.918Z,2.05
2018-07-10T04:23:53.041Z,2.20
2018-07-10T04:26:22.354Z,2.52
2018-07-10T04:29:04.808Z,2.20
2018-07-10T04:31:42.280Z,2.10
2018-07-10T04:34:10.809Z,2.12
2018-07-10T04:36:39.321Z,2.25
2018-07-10T04:39:07.815Z,2.50
2018-07-10T04:41:38.378Z,2.35
2018-07-10T04:44:11.956Z,2.80
2018-07-10T04:46:42.346Z,3.10
2018-07-10T04:49:47.659Z,2.60
2018-07-10T04:52:28.581Z,2.42
2018-07-10T04:55:03.489Z,2.50
2018-07-10T04:57:35.246Z,2.90
2018-07-10T05:00:04.798Z,2.90
2018-07-10T05:02:34.185Z,2.50
2018-07-10T05:05:03.400Z,2.70
2018-07-10T05:07:31.903Z,3.15
2018-07-10T05:10:00.483Z,2.77
2018-07-10T05:12:30.045Z,2.67
2018-07-10T05:14:59.517Z,3.00
2018-07-10T05:17:28.017Z,2.65
2018-07-10T05:19:56.874Z,2.80
2018-07-10T05:22:28.032Z,3.33
2018-07-10T05:24:57.664Z,3.20
2018-07-10T05:27:26.242Z,3.00
2018-07-10T05:29:55.184Z,2.70
2018-07-10T05:32:23.710Z,3.70
2018-07-10T05:34:52.596Z,3.52
2018-07-10T05:37:33.822Z,3.25
2018-07-10T05:40:09.468Z,3.77
2018-07-10T05:42:47.079Z,3.42
2018-07-10T05:45:17.368Z,3.15
2018-07-10T05:47:46.706Z,3.70
2018-07-10T05:50:17.445Z,3.67
2018-07-10T05:52:46.623Z,3.60
2018-07-10T05:55:17.469Z,3.15
2018-07-10T05:57:46.986Z,3.70
2018-07-10T06:00:17.046Z,3.27
2018-07-10T06:02:45.865Z,3.87
2018-07-10T06:05:14.349Z,4.12
2018-07-10T06:07:42.894Z,4.05
2018-07-10T06:10:11.473Z,4.25
2018-07-10T06:12:39.990Z,4.10
2018-07-10T06:15:08.531Z,3.45
2018-07-10T06:17:37.613Z,3.80
2018-07-10T06:20:06.450Z,4.05
2018-07-10T06:22:34.955Z,3.95
2018-07-10T06:25:05.065Z,4.50
2018-07-10T06:27:39.752Z,4.30
2018-07-10T06:30:09.932Z,4.62
2018-07-10T06:32:49.752Z,4.65
2018-07-10T06:35:30.063Z,6.10
2018-07-10T06:37:58.610Z,5.47
2018-07-10T06:40:28.052Z,4.92
2018-07-10T06:43:12.261Z,5.62
2018-07-10T06:45:40.765Z,5.28
2018-07-10T06:48:11.835Z,5.65
2018-07-10T06:50:40.650Z,5.22
2018-07-10T06:53:10.766Z,6.10
2018-07-10T06:55:50.666Z,5.65
2018-07-10T06:58:19.189Z,5.08
2018-07-10T07:00:47.725Z,5.12
2018-07-10T07:03:17.949Z,5.92
2018-07-10T07:05:47.899Z,6.37
2018-07-10T07:08:16.530Z,5.25
2018-07-10T07:10:45.707Z,5.15
2018-07-10T07:13:14.229Z,5.10
2018-07-10T07:15:43.672Z,5.05
2018-07-10T07:18:13.301Z,5.05
2018-07-10T07:20:41.846Z,4.95
2018-07-10T07:23:10.952Z,5.58
2018-07-10T07:25:39.778Z,4.83
2018-07-10T07:28:09.613Z,4.90
2018-07-10T07:30:38.160Z,5.50
2018-07-10T07:33:06.713Z,5.50
2018-07-10T07:35:35.860Z,4.60
2018-07-10T07:38:05.734Z,5.10
2018-07-10T07:40:34.569Z,3.90
2018-07-10T07:43:03.082Z,4.40
2018-07-10T07:45:31.576Z,4.10
2018-07-10T07:48:00.104Z,4.92
2018-07-10T07:50:28.610Z,4.60
2018-07-10T07:56:10.578Z,4.60
2018-07-10T07:58:39.242Z,4.70
2018-07-10T08:01:07.817Z,4.08
2018-07-10T08:03:37.294Z,5.45
2018-07-10T08:06:07.261Z,5.17
2018-07-10T08:08:37.013Z,5.33
2018-07-10T08:11:05.695Z,4.90
2018-07-10T08:13:34.962Z,3.92
2018-07-10T08:16:03.475Z,5.33
2018-07-10T08:18:31.978Z,5.03
2018-07-10T08:21:00.501Z,5.67
2018-07-10T08:23:30.200Z,5.83
2018-07-10T08:25:58.931Z,4.65
2018-07-10T08:28:28.990Z,5.28
2018-07-10T08:30:58.137Z,5.53
2018-07-10T08:33:26.707Z,6.05
2018-07-10T08:35:55.377Z,5.37
2018-07-10T08:38:35.428Z,5.03
2018-07-10T08:41:04.101Z,5.50
2018-07-10T08:43:32.812Z,5.08
2018-07-10T08:46:01.826Z,5.35
2018-07-10T08:48:30.885Z,5.83
2018-07-10T08:50:59.602Z,4.97
2018-07-10T08:53:28.152Z,5.62
2018-07-10T08:55:56.707Z,6.42
2018-07-10T08:58:26.958Z,5.97
2018-07-10T09:00:55.437Z,4.22
2018-07-10T09:03:24.166Z,5.90
2018-07-10T09:05:53.045Z,4.78
2018-07-10T09:08:21.909Z,4.75
2018-07-10T09:10:50.393Z,5.42
2018-07-10T09:13:18.929Z,5.80
2018-07-10T09:15:47.463Z,5.35
2018-07-10T09:18:15.964Z,6.28
2018-07-10T09:20:48.801Z,6.33
2018-07-10T09:23:18.480Z,5.45
2018-07-10T09:25:49.397Z,5.72
2018-07-10T09:28:17.904Z,5.30
2018-07-10T09:30:46.420Z,4.80
2018-07-10T09:33:14.938Z,4.20
2018-07-10T09:35:43.622Z,3.95
2018-07-10T09:38:13.324Z,3.75
2018-07-10T09:40:42.099Z,4.97
2018-07-10T09:43:11.271Z,4.30
2018-07-10T09:45:39.907Z,4.30
2018-07-10T09:48:10.340Z,3.35
2018-07-10T09:50:39.420Z,3.70
2018-07-10T09:53:08.028Z,3.77
2018-07-10T09:55:38.814Z,3.30
2018-07-10T09:58:07.474Z,4.20
2018-07-10T10:00:42.012Z,4.22
2018-07-10T10:03:11.026Z,3.42
2018-07-10T10:05:42.061Z,4.35
2018-07-10T10:08:11.731Z,3.30
2018-07-10T10:10:40.486Z,3.75
2018-07-10T10:13:09.297Z,3.12
2018-07-10T10:15:38.205Z,2.75
2018-07-10T10:18:09.960Z,4.17
2018-07-10T10:20:40.102Z,2.90
2018-07-10T10:23:10.325Z,2.80
2018-07-10T10:25:40.283Z,3.80
2018-07-10T10:28:09.948Z,2.83
2018-07-10T10:30:39.886Z,2.58
2018-07-10T10:33:09.268Z,3.15
2018-07-10T10:35:37.806Z,2.65
2018-07-10T10:38:06.629Z,3.22
2018-07-10T10:40:39.391Z,3.25
2018-07-10T10:43:10.761Z,3.30
2018-07-10T10:45:44.529Z,3.00
2018-07-10T10:48:15.481Z,4.08
2018-07-10T10:50:51.500Z,3.70
2018-07-10T10:53:21.905Z,3.62
2018-07-10T10:55:50.414Z,4.90
2018-07-10T10:58:19.665Z,3.60
2018-07-10T11:00:48.174Z,4.70
2018-07-10T11:03:17.125Z,4.17
2018-07-10T11:05:45.749Z,4.55
2018-07-10T11:08:14.305Z,4.55
2018-07-10T11:10:43.789Z,3.83
2018-07-10T11:13:13.630Z,4.37
2018-07-10T11:15:44.425Z,3.70
2018-07-10T11:18:18.909Z,3.45
2018-07-10T11:20:53.018Z,3.85
2018-07-10T11:23:30.763Z,3.80
2018-07-10T11:26:06.745Z,4.00
2018-07-10T11:28:35.274Z,3.75
2018-07-10T11:31:03.801Z,4.25
2018-07-10T11:33:32.306Z,3.92
2018-07-10T11:36:01.227Z,3.90
2018-07-10T11:38:29.745Z,3.87
2018-07-10T11:40:58.293Z,3.50
2018-07-10T11:43:27.340Z,3.87
2018-07-10T11:45:56.950Z,3.52
2018-07-10T11:48:25.966Z,3.92
2018-07-10T11:50:54.515Z,4.00
2018-07-10T11:53:23.048Z,3.95
2018-07-10T11:55:51.566Z,4.15
2018-07-10T11:58:20.085Z,4.10
2018-07-10T12:00:48.873Z,4.58
2018-07-10T12:03:17.993Z,4.65
2018-07-10T12:05:46.502Z,3.70
2018-07-10T12:08:15.001Z,3.37
2018-07-10T12:10:45.927Z,3.85
2018-07-10T12:13:14.429Z,4.42
2018-07-10T12:15:44.035Z,3.92
2018-07-10T12:18:14.649Z,5.40
2018-07-10T12:20:43.805Z,4.65
2018-07-10T12:23:13.183Z,6.00
2018-07-10T12:25:45.158Z,4.42
2018-07-10T12:28:14.794Z,4.30
2018-07-10T12:30:43.915Z,4.97
2018-07-10T12:33:12.433Z,5.05
2018-07-10T12:35:41.562Z,4.42
2018-07-10T12:38:10.890Z,4.67
2018-07-10T12:40:39.381Z,5.40
2018-07-10T12:43:07.891Z,4.90
2018-07-10T12:45:37.019Z,4.92
2018-07-10T12:48:05.989Z,4.95
2018-07-10T12:50:34.498Z,5.78
2018-07-10T12:53:03.288Z,5.80
2018-07-10T12:55:33.931Z,4.75
2018-07-10T12:58:02.537Z,4.50
2018-07-10T13:00:32.220Z,4.45
2018-07-10T13:03:02.290Z,5.35
2018-07-10T13:05:36.394Z,4.85
2018-07-10T13:08:05.004Z,4.70
2018-07-10T13:10:34.305Z,4.08
2018-07-10T13:13:03.509Z,4.60
2018-07-10T13:18:33.273Z,4.03
2018-07-10T13:21:02.163Z,5.03
2018-07-10T13:23:31.786Z,5.12
2018-07-10T13:26:00.330Z,6.37
2018-07-10T13:28:28.901Z,5.47
2018-07-10T13:30:57.449Z,6.17
2018-07-10T13:33:26.957Z,4.70
2018-07-10T13:35:55.539Z,4.72
2018-07-10T13:38:24.803Z,5.62
2018-07-10T13:40:54.221Z,5.42
2018-07-10T13:43:22.767Z,5.87
2018-07-10T13:45:51.991Z,6.80
2018-07-10T13:48:21.872Z,6.40
2018-07-10T13:50:50.390Z,5.83
2018-07-10T13:53:19.038Z,6.50
2018-07-10T13:55:47.544Z,6.05
2018-07-10T13:58:27.520Z,6.20
2018-07-10T14:01:08.198Z,6.10
2018-07-10T14:03:38.112Z,6.05
2018-07-10T14:06:09.569Z,6.70
2018-07-10T14:08:38.533Z,5.50
2018-07-10T14:11:07.755Z,6.50
2018-07-10T14:13:38.274Z,6.28
2018-07-10T14:16:07.826Z,7.05
2018-07-10T14:18:36.385Z,6.62
2018-07-10T14:21:05.909Z,6.53
2018-07-10T14:23:34.549Z,6.72
2018-07-10T14:26:03.076Z,6.30
2018-07-10T14:28:31.590Z,6.12
2018-07-10T14:31:00.610Z,7.17
2018-07-10T14:33:29.161Z,7.42
2018-07-10T14:35:57.985Z,7.00
2018-07-10T14:38:28.454Z,7.75
2018-07-10T14:40:57.496Z,7.85
2018-07-10T14:43:29.741Z,7.58
2018-07-10T14:46:04.927Z,5.92
2018-07-10T14:48:34.661Z,7.40
2018-07-10T14:51:03.585Z,8.15
2018-07-10T14:53:32.856Z,7.90
2018-07-10T14:56:01.826Z,7.70
2018-07-10T14:58:30.432Z,7.47
2018-07-10T15:00:58.913Z,7.35
2018-07-10T15:03:27.755Z,6.75
2018-07-10T15:05:56.640Z,8.40
2018-07-10T15:08:25.527Z,7.37
2018-07-10T15:10:54.493Z,7.20
2018-07-10T15:13:23.018Z,8.15
2018-07-10T15:15:58.745Z,6.85
2018-07-10T15:18:33.397Z,8.43
2018-07-10T15:21:02.409Z,6.42
2018-07-10T15:23:31.323Z,6.90
2018-07-10T15:26:00.687Z,8.85
2018-07-10T15:28:29.387Z,8.23
2018-07-10T15:30:57.930Z,8.13
2018-07-10T15:33:27.385Z,8.75
2018-07-10T15:35:56.579Z,9.10
2018-07-10T15:38:25.676Z,8.40
2018-07-10T15:40:54.887Z,8.30
2018-07-10T15:43:25.081Z,5.05
2018-07-10T15:45:53.705Z,5.15
2018-07-10T15:48:24.401Z,8.60
2018-07-10T15:51:01.461Z,6.92
2018-07-10T15:53:35.977Z,7.47
2018-07-10T15:56:08.917Z,7.45
2018-07-10T15:58:44.570Z,7.08
2018-07-10T16:01:13.122Z,6.90
2018-07-10T16:03:42.648Z,7.53
2018-07-10T16:06:13.085Z,8.33
2018-07-10T16:08:42.685Z,8.50
2018-07-10T16:11:11.206Z,8.58
2018-07-10T16:13:41.774Z,7.75
2018-07-10T16:16:14.827Z,7.35
2018-07-10T16:18:49.752Z,8.90
2018-07-10T16:21:20.002Z,10.10
2018-07-10T16:23:49.598Z,11.00
2018-07-10T16:26:21.938Z,9.33
2018-07-10T16:28:52.594Z,9.15
2018-07-10T16:31:23.435Z,8.78
2018-07-10T16:33:52.238Z,9.65
2018-07-10T16:36:24.647Z,10.35
2018-07-10T16:38:57.460Z,10.32
2018-07-10T16:41:33.078Z,9.33
2018-07-10T16:44:05.497Z,10.48
2018-07-10T16:46:37.081Z,11.30
2018-07-10T16:50:12.209Z,10.72
2018-07-10T16:52:54.987Z,12.70
2018-07-10T16:55:23.733Z,11.93
2018-07-10T16:57:53.437Z,11.20
2018-07-10T17:00:23.629Z,11.70
2018-07-10T17:02:53.475Z,11.63
2018-07-10T17:05:27.663Z,11.50
2018-07-10T17:08:00.734Z,9.68
2018-07-10T17:10:31.518Z,11.18
2018-07-10T17:13:00.552Z,11.53
2018-07-10T17:15:30.024Z,11.45
2018-07-10T17:17:58.585Z,10.48
2018-07-10T17:20:27.147Z,10.58
2018-07-10T17:22:55.667Z,11.68
2018-07-10T17:25:24.294Z,10.32
2018-07-10T17:27:53.728Z,11.55
2018-07-10T17:30:22.681Z,11.15
2018-07-10T17:32:52.200Z,11.70
2018-07-10T17:35:20.884Z,11.83
2018-07-10T17:37:50.122Z,12.50
2018-07-10T17:40:19.664Z,12.80
2018-07-10T17:42:48.972Z,13.03
2018-07-10T17:45:24.236Z,13.13
2018-07-10T17:47:52.910Z,12.55
2018-07-10T17:50:21.555Z,11.70
2018-07-10T17:52:50.107Z,11.90
2018-07-10T17:55:19.082Z,12.00
2018-07-10T17:57:51.191Z,13.00
2018-07-10T18:00:27.555Z,13.72
2018-07-10T18:02:56.410Z,12.80
2018-07-10T18:05:25.403Z,12.07
2018-07-10T18:07:54.815Z,12.25
2018-07-10T18:10:23.872Z,12.25
2018-07-10T18:12:53.192Z,12.50
2018-07-10T18:15:23.275Z,11.90
2018-07-10T18:17:53.285Z,12.13
2018-07-10T18:20:22.317Z,12.70
2018-07-10T18:22:51.553Z,14.10
2018-07-10T18:25:21.342Z,11.97
2018-07-10T18:27:50.262Z,12.28
2018-07-10T18:30:20.628Z,11.80
2018-07-10T18:32:49.648Z,12.58
2018-07-10T18:35:19.166Z,12.82
2018-07-10T18:37:49.122Z,13.25
2018-07-10T18:40:19.565Z,11.60
2018-07-10T18:42:48.510Z,13.25
2018-07-10T18:45:17.634Z,12.47
2018-07-10T18:47:48.021Z,13.18
2018-07-10T18:50:16.722Z,13.30
2018-07-10T18:52:45.278Z,12.43
2018-07-10T18:55:13.868Z,12.40
2018-07-10T18:57:57.607Z,12.95
2018-07-10T19:02:36.969Z,11.95
2018-07-10T19:05:08.553Z,12.93
2018-07-10T19:07:39.525Z,13.30
2018-07-10T19:10:09.180Z,12.80
2018-07-10T19:12:38.967Z,13.55
2018-07-10T19:15:09.919Z,13.08
2018-07-10T19:17:43.703Z,12.13
2018-07-10T19:20:14.755Z,13.10
2018-07-10T19:22:51.014Z,11.78
2018-07-10T19:25:20.083Z,14.38
2018-07-10T19:27:52.273Z,13.32
2018-07-10T19:30:50.239Z,14.40
2018-07-10T19:33:18.818Z,14.15
2018-07-10T19:35:49.402Z,14.80
2018-07-10T19:38:19.789Z,15.28
2018-07-10T19:40:50.145Z,13.50
2018-07-10T19:43:20.182Z,14.80
2018-07-10T19:45:49.801Z,16.27
2018-07-10T19:48:28.706Z,14.87
2018-07-10T19:50:58.498Z,14.73
2018-07-10T19:53:29.658Z,13.15
2018-07-10T19:55:59.377Z,13.72
2018-07-10T19:58:36.856Z,15.95
2018-07-10T20:01:18.228Z,15.90
2018-07-10T20:03:59.163Z,17.35
2018-07-10T20:06:32.556Z,17.95
2018-07-10T20:09:07.605Z,17.30
2018-07-10T20:12:13.824Z,16.02
2018-07-10T20:16:54.221Z,16.67
2018-07-10T20:19:30.075Z,16.32
2018-07-10T20:22:17.654Z,13.75
2018-07-10T20:52:05.953Z,12.95
2018-07-10T20:54:47.725Z,14.50
2018-07-10T20:57:21.638Z,14.80
2018-07-10T20:59:58.357Z,14.93
2018-07-10T21:04:44.502Z,15.00
2018-07-10T21:07:22.946Z,15.65
2018-07-10T21:10:07.116Z,15.88
2018-07-10T21:12:46.269Z,17.85
2018-07-10T21:15:22.439Z,16.32
2018-07-10T21:17:54.904Z,17.95
2018-07-10T21:20:39.835Z,16.57
2018-07-10T21:23:13.569Z,17.75
2018-07-10T21:25:49.415Z,17.00
2018-07-10T21:28:29.064Z,18.30
2018-07-10T21:32:07.182Z,17.87
2018-07-10T21:34:43.788Z,18.62
2018-07-10T21:39:33.268Z,19.77
2018-07-10T21:42:27.440Z,17.70
2018-07-10T21:47:17.336Z,18.45
2018-07-10T21:49:57.343Z,18.23
2018-07-10T21:52:27.685Z,17.80
2018-07-10T21:54:57.730Z,18.50
2018-07-10T21:57:30.737Z,17.80
2018-07-10T22:00:00.141Z,18.35
2018-07-10T22:02:36.442Z,17.90
2018-07-10T22:05:09.051Z,18.45
2018-07-10T22:07:45.340Z,18.20
2018-07-10T22:10:21.828Z,19.07
2018-07-10T22:12:53.486Z,18.65
2018-07-10T22:15:28.027Z,19.70
2018-07-10T22:18:09.967Z,19.67
2018-07-10T22:20:42.600Z,19.67
2018-07-10T22:23:26.740Z,17.85
2018-07-10T22:26:04.635Z,18.77
2018-07-10T22:28:36.706Z,19.73
2018-07-10T22:31:14.339Z,19.02
2018-07-10T22:33:46.456Z,22.07
2018-07-10T22:36:15.173Z,22.02
2018-07-10T22:38:44.172Z,21.17
2018-07-10T22:41:13.079Z,21.57
2018-07-10T22:43:42.649Z,20.75
2018-07-10T22:46:18.373Z,22.30
2018-07-10T22:48:47.705Z,21.97
2018-07-10T22:51:18.659Z,22.75
2018-07-10T22:53:47.898Z,23.10
2018-07-10T22:56:16.494Z,24.15
2018-07-10T22:58:45.101Z,23.20
2018-07-10T23:01:13.634Z,24.77
2018-07-10T23:03:42.231Z,24.10
2018-07-10T23:06:10.758Z,22.32
2018-07-10T23:08:39.447Z,23.05
2018-07-10T23:11:11.346Z,23.42
2018-07-10T23:13:41.825Z,23.83
2018-07-10T23:16:11.272Z,24.10
2018-07-10T23:18:40.840Z,23.85
2018-07-10T23:21:12.064Z,24.02
2018-07-10T23:23:40.742Z,24.25
2018-07-10T23:26:12.162Z,23.30
2018-07-10T23:28:44.538Z,23.73
2018-07-10T23:31:15.561Z,22.95
2018-07-10T23:33:46.616Z,24.30
2018-07-10T23:36:18.083Z,23.40
2018-07-10T23:39:08.617Z,24.00
2018-07-10T23:41:56.039Z,24.07
2018-07-10T23:44:30.488Z,23.07
2018-07-10T23:47:06.875Z,24.43
2018-07-10T23:49:39.493Z,23.12
2018-07-10T23:52:21.748Z,24.15
2018-07-10T23:54:52.544Z,23.62
2018-07-10T23:57:25.282Z,23.87
2018-07-10T23:59:55.839Z,23.80
